| time (UTC) | temp C | wind direction | speed KPH | gust KPH | rain 1hr cm | rain 24hr cm | rain mn cm | humidity % | barometer mb |
| 20260504001517 | 25 | 95 | 1.6 | 9.7 | 0.00 | 0.00 | 0.00 | 33 | 1008.9 |
| 20260504000016 | 26 | 126 | 0.0 | 3.2 | 0.00 | 0.00 | 0.00 | 35 | 1009.1 |
| 20260503233014 | 25 | 352 | 0.0 | 12.9 | 0.00 | 0.00 | 0.00 | 39 | 1009.4 |
| 20260503231512 | 25 | 238 | 0.0 | 11.3 | 0.00 | 0.00 | 0.00 | 36 | 1009.6 |
| 20260503230010 | 26 | 149 | 0.0 | 11.3 | 0.00 | 0.00 | 0.00 | 37 | 1009.8 |
| 20260503223008 | 25 | 32 | 0.0 | 8.0 | 0.00 | 0.00 | 0.00 | 36 | 1010.2 |
| 20260503221505 | 25 | 120 | 1.6 | 8.0 | 0.00 | 0.00 | 0.00 | 37 | 1010.3 |
| 20260503220010 | 25 | 113 | 0.0 | 12.9 | 0.00 | 0.00 | 0.00 | 40 | 1010.6 |
| 20260503213003 | 25 | 245 | 0.0 | 11.3 | 0.00 | 0.00 | 0.00 | 38 | 1010.7 |
| 20260503211559 | 25 | 47 | 0.0 | 12.9 | 0.00 | 0.00 | 0.00 | 38 | 1010.9 |
| 20260503210104 | 25 | 137 | 0.0 | 8.0 | 0.00 | 0.00 | 0.00 | 38 | 1011.0 |
| 20260503203102 | 24 | 192 | 0.0 | 12.9 | 0.00 | 0.00 | 0.00 | 44 | 1011.4 |
| 20260503201554 | 23 | 224 | 0.0 | 4.8 | 0.00 | 0.00 | 0.00 | 45 | 1011.5 |
| 20260503200056 | 23 | 91 | 0.0 | 11.3 | 0.00 | 0.00 | 0.00 | 46 | 1011.7 |
| 20260503193053 | 24 | 126 | 0.0 | 6.4 | 0.00 | 0.00 | 0.00 | 48 | 1012.0 |
| 20260503191549 | 24 | 359 | 0.0 | 3.2 | 0.00 | 0.00 | 0.00 | 51 | 1012.1 |
| 20260503190047 | 22 | 70 | 0.0 | 9.7 | 0.00 | 0.00 | 0.00 | 47 | 1012.3 |
| 20260503183054 | 22 | 123 | 0.0 | 6.4 | 0.00 | 0.00 | 0.00 | 53 | 1012.6 |
| 20260503181539 | 22 | 91 | 0.0 | 6.4 | 0.00 | 0.00 | 0.00 | 50 | 1012.6 |
| 20260503180037 | 21 | 143 | 0.0 | 14.5 | 0.00 | 0.00 | 0.00 | 50 | 1012.7 |
| 20260503173035 | 21 | 195 | 0.0 | 12.9 | 0.00 | 0.00 | 0.00 | 52 | 1012.8 |
| 20260503171533 | 21 | 195 | 0.0 | 1.6 | 0.00 | 0.00 | 0.00 | 56 | 1012.9 |
| 20260503090104 | 14 | 115 | 0.0 | 0.0 | 0.00 | 0.00 | 0.00 | 61 | 1013.4 |
| 20260503081627 | 15 | 116 | 0.0 | 0.0 | 0.00 | 0.00 | 0.00 | 58 | 1013.4 |
| 20260503080110 | 15 | 116 | 0.0 | 0.0 | 0.00 | 0.00 | 0.00 | 57 | 1013.4 |
| 20260503071550 | 16 | 116 | 0.0 | 0.0 | 0.00 | 0.00 | 0.00 | 53 | 1013.3 |
| 20260503053015 | 16 | 116 | 0.0 | 0.0 | 0.00 | 0.00 | 0.00 | 53 | 1013.0 |
| 20260503051513 | 17 | 116 | 0.0 | 0.0 | 0.00 | 0.00 | 0.00 | 53 | 1012.9 |
| 20260503050026 | 17 | 116 | 0.0 | 0.0 | 0.00 | 0.00 | 0.00 | 56 | 1012.9 |
| 20260503043047 | 18 | 60 | 0.0 | 4.8 | 0.00 | 0.00 | 0.00 | 50 | 1012.6 |
| 20260503041548 | 18 | 36 | 0.0 | 1.6 | 0.00 | 0.00 | 0.00 | 50 | 1012.5 |
| 20260503040049 | 18 | 143 | 0.0 | 0.0 | 0.00 | 0.00 | 0.00 | 52 | 1012.3 |
| 20260503033059 | 19 | 79 | 0.0 | 3.2 | 0.00 | 0.00 | 0.00 | 49 | 1011.9 |
| 20260503031554 | 19 | 7 | 0.0 | 9.7 | 0.00 | 0.00 | 0.00 | 47 | 1011.8 |
| 20260503030045 | 20 | 74 | 0.0 | 8.0 | 0.00 | 0.00 | 0.00 | 48 | 1011.7 |
| 20260503023044 | 20 | 98 | 1.6 | 8.0 | 0.00 | 0.00 | 0.00 | 46 | 1011.7 |
| 20260503021545 | 21 | 57 | 0.0 | 4.8 | 0.00 | 0.00 | 0.00 | 46 | 1011.7 |
| 20260503020048 | 21 | 96 | 0.0 | 12.9 | 0.00 | 0.00 | 0.00 | 45 | 1011.7 |
| 20260503013045 | 22 | 74 | 0.0 | 1.6 | 0.00 | 0.00 | 0.00 | 44 | 1011.7 |
| 20260503011546 | 22 | 46 | 0.0 | 12.9 | 0.00 | 0.00 | 0.00 | 44 | 1011.9 |
| 20260503010043 | 23 | 257 | 0.0 | 8.0 | 0.00 | 0.00 | 0.00 | 41 | 1011.8 |
| 20260503003040 | 23 | 78 | 0.0 | 6.4 | 0.00 | 0.00 | 0.00 | 45 | 1012.0 |